createdAt,value
2023-04-04T00:02:10.761Z,58.40
2023-04-04T00:04:55.956Z,57.76
2023-04-04T00:07:41.182Z,57.70
2023-04-04T00:10:26.303Z,58.88
2023-04-04T00:13:11.547Z,58.79
2023-04-04T00:15:56.908Z,57.08
2023-04-04T00:18:42.009Z,57.66
2023-04-04T00:21:27.318Z,57.71
2023-04-04T00:24:12.681Z,57.88
2023-04-04T00:26:57.789Z,57.52
2023-04-04T00:29:43.014Z,58.09
2023-04-04T00:32:28.173Z,58.48
2023-04-04T00:35:13.648Z,59.43
2023-04-04T00:37:59.043Z,58.84
2023-04-04T00:40:46.892Z,58.75
2023-04-04T00:43:32.961Z,58.54
2023-04-04T00:46:19.183Z,57.66
2023-04-04T00:49:05.232Z,58.14
2023-04-04T00:51:50.523Z,59.40
2023-04-04T00:54:37.160Z,58.98
2023-04-04T00:57:23.011Z,58.99
2023-04-04T01:00:08.955Z,58.37
2023-04-04T01:02:54.289Z,58.71
2023-04-04T01:05:40.112Z,59.24
2023-04-04T01:08:26.490Z,59.01
2023-04-04T01:11:12.734Z,59.43
2023-04-04T01:13:58.225Z,59.08
2023-04-04T01:16:43.569Z,55.43
2023-04-04T01:19:36.516Z,55.60
2023-04-04T01:22:28.939Z,56.11
2023-04-04T01:25:15.939Z,57.62
2023-04-04T01:28:05.310Z,57.68
2023-04-04T01:30:50.532Z,56.97
2023-04-04T01:33:45.306Z,56.60
2023-04-04T01:36:45.637Z,56.97
2023-04-04T01:39:43.887Z,56.74
2023-04-04T01:42:31.905Z,56.58
2023-04-04T01:45:17.926Z,55.15
2023-04-04T01:48:04.418Z,55.41
2023-04-04T01:50:49.874Z,55.70
2023-04-04T01:53:34.940Z,57.31
2023-04-04T01:56:20.220Z,56.62
2023-04-04T01:59:05.416Z,56.44
2023-04-04T02:01:51.160Z,55.22
2023-04-04T02:04:36.207Z,54.50
2023-04-04T02:07:21.462Z,54.47
2023-04-04T02:10:07.512Z,53.76
2023-04-04T02:12:53.447Z,54.67
2023-04-04T02:15:41.229Z,54.38
2023-04-04T02:18:26.364Z,55.47
2023-04-04T02:21:11.844Z,55.66
2023-04-04T02:23:56.964Z,56.25
2023-04-04T02:26:42.426Z,55.46
2023-04-04T02:29:28.036Z,55.90
2023-04-04T02:32:13.333Z,56.12
2023-04-04T02:34:59.487Z,54.83
2023-04-04T02:37:45.913Z,54.90
2023-04-04T02:40:37.209Z,55.73
2023-04-04T02:43:23.854Z,54.55
2023-04-04T02:46:20.989Z,55.84
2023-04-04T02:49:10.394Z,57.79
2023-04-04T02:51:58.102Z,57.80
2023-04-04T02:54:47.921Z,57.74
2023-04-04T02:57:43.658Z,58.02
2023-04-04T03:00:29.261Z,56.25
2023-04-04T03:03:14.489Z,54.67
2023-04-04T03:06:02.829Z,53.88
2023-04-04T03:08:48.266Z,54.03
2023-04-04T03:11:34.648Z,56.12
2023-04-04T03:14:20.408Z,57.14
2023-04-04T03:17:06.533Z,57.13
2023-04-04T03:19:51.938Z,57.18
2023-04-04T03:22:37.590Z,58.10
2023-04-04T03:25:23.123Z,58.34
2023-04-04T03:28:11.530Z,57.79
2023-04-04T03:31:03.615Z,58.34
2023-04-04T03:33:49.186Z,57.96
2023-04-04T03:36:34.788Z,57.53
2023-04-04T03:39:19.954Z,57.43
2023-04-04T03:42:05.782Z,56.83
2023-04-04T03:44:51.647Z,57.34
2023-04-04T03:47:45.804Z,57.78
2023-04-04T03:50:31.251Z,57.44
2023-04-04T03:53:16.862Z,56.94
2023-04-04T03:56:02.745Z,57.66
2023-04-04T03:58:47.987Z,57.69
2023-04-04T04:01:37.132Z,58.73
2023-04-04T04:04:22.385Z,58.79
2023-04-04T04:07:07.920Z,59.13
2023-04-04T04:09:53.360Z,59.30
2023-04-04T04:12:38.466Z,58.75
2023-04-04T04:15:23.556Z,58.20
2023-04-04T04:18:08.931Z,57.16
2023-04-04T04:20:58.003Z,58.21
2023-04-04T04:23:43.288Z,58.60
2023-04-04T04:26:28.536Z,59.05
2023-04-04T04:29:14.094Z,58.88
2023-04-04T04:31:59.676Z,59.53
2023-04-04T04:34:48.729Z,58.88
2023-04-04T04:37:36.031Z,59.35
2023-04-04T04:40:22.680Z,58.68
2023-04-04T04:43:31.276Z,59.81
2023-04-04T04:46:16.806Z,59.72
2023-04-04T04:49:02.137Z,59.57
2023-04-04T04:51:49.309Z,60.05
2023-04-04T04:54:36.030Z,60.05
2023-04-04T04:57:21.668Z,60.02
2023-04-04T05:00:07.695Z,59.89
2023-04-04T05:02:55.365Z,59.84
2023-04-04T05:05:49.330Z,59.56
2023-04-04T05:08:35.497Z,58.33
2023-04-04T05:11:27.535Z,59.06
2023-04-04T05:14:12.842Z,59.46
2023-04-04T05:17:05.889Z,59.72
2023-04-04T05:19:52.448Z,59.77
2023-04-04T05:22:46.645Z,60.54
2023-04-04T05:25:36.930Z,60.84
2023-04-04T05:28:22.738Z,60.92
2023-04-04T05:31:09.348Z,61.13
2023-04-04T05:33:55.691Z,60.79
2023-04-04T05:36:48.467Z,61.28
2023-04-04T05:39:33.669Z,61.92
2023-04-04T05:42:23.454Z,61.54
2023-04-04T05:45:11.898Z,61.09
2023-04-04T05:47:57.601Z,59.01
2023-04-04T05:50:47.343Z,59.47
2023-04-04T05:53:33.809Z,60.32
2023-04-04T05:56:21.142Z,60.93
2023-04-04T05:59:07.107Z,61.59
2023-04-04T06:01:58.878Z,63.29
2023-04-04T06:04:43.880Z,63.58
2023-04-04T06:07:30.194Z,63.95
2023-04-04T06:10:15.453Z,64.90
2023-04-04T06:13:00.840Z,65.61
2023-04-04T06:15:47.148Z,65.26
2023-04-04T06:18:32.554Z,66.27
2023-04-04T06:21:18.098Z,66.53
2023-04-04T06:24:03.450Z,66.88
2023-04-04T06:26:48.838Z,67.72
2023-04-04T06:29:34.696Z,66.01
2023-04-04T06:32:20.653Z,67.49
2023-04-04T06:35:07.566Z,67.65
2023-04-04T06:38:03.480Z,67.64
2023-04-04T06:40:48.755Z,67.52
2023-04-04T06:43:33.847Z,67.20
2023-04-04T06:46:19.349Z,68.14
2023-04-04T06:49:05.489Z,67.15
2023-04-04T06:51:51.920Z,67.76
2023-04-04T06:54:37.403Z,67.39
2023-04-04T06:57:22.894Z,67.25
2023-04-04T07:00:09.647Z,67.83
2023-04-04T07:02:59.017Z,67.82
2023-04-04T07:05:44.212Z,67.66
2023-04-04T07:08:34.411Z,68.04
2023-04-04T07:11:21.617Z,66.79
2023-04-04T07:14:06.922Z,67.16
2023-04-04T07:16:52.845Z,66.80
2023-04-04T07:19:38.298Z,66.67
2023-04-04T07:22:23.712Z,66.18
2023-04-04T07:25:09.366Z,66.61
2023-04-04T07:28:02.332Z,64.13
2023-04-04T07:30:58.809Z,65.85
2023-04-04T07:33:44.278Z,66.14
2023-04-04T07:36:29.865Z,64.69
2023-04-04T07:39:15.227Z,64.54
2023-04-04T07:42:00.599Z,63.58
2023-04-04T07:44:45.704Z,62.30
2023-04-04T07:47:30.947Z,61.54
2023-04-04T07:50:16.686Z,62.08
2023-04-04T07:53:02.066Z,61.95
2023-04-04T07:55:47.400Z,62.09
2023-04-04T07:58:36.050Z,61.04
2023-04-04T08:01:21.323Z,60.72
2023-04-04T08:04:07.166Z,59.69
2023-04-04T08:06:52.349Z,58.62
2023-04-04T08:09:37.577Z,58.47
2023-04-04T08:12:22.900Z,58.21
2023-04-04T08:15:08.475Z,60.86
2023-04-04T08:17:53.864Z,61.62
2023-04-04T08:20:39.254Z,61.16
2023-04-04T08:23:24.546Z,59.84
2023-04-04T08:26:10.105Z,58.90
2023-04-04T08:28:55.329Z,59.01
2023-04-04T08:31:40.673Z,57.62
2023-04-04T08:34:25.951Z,49.96
2023-04-04T08:37:11.384Z,50.96
2023-04-04T08:39:56.906Z,57.42
2023-04-04T08:42:43.174Z,54.92
2023-04-04T08:45:30.198Z,54.90
2023-04-04T08:48:17.686Z,53.63
2023-04-04T08:51:04.570Z,55.50
2023-04-04T08:53:50.465Z,52.16
2023-04-04T08:56:35.907Z,49.49
2023-04-04T08:59:21.501Z,48.59
2023-04-04T09:02:09.584Z,50.51
2023-04-04T09:05:05.635Z,52.86
2023-04-04T09:07:51.851Z,52.12
2023-04-04T09:10:38.014Z,53.37
2023-04-04T09:13:23.569Z,52.52
2023-04-04T09:16:08.908Z,53.79
2023-04-04T09:18:54.219Z,49.63
2023-04-04T09:21:39.631Z,51.25
2023-04-04T09:24:24.721Z,51.95
2023-04-04T09:27:11.931Z,50.39
2023-04-04T09:30:05.218Z,51.96
2023-04-04T09:32:51.142Z,51.41
2023-04-04T09:35:37.770Z,49.58
2023-04-04T09:38:24.548Z,52.71
2023-04-04T09:41:10.243Z,51.85
2023-04-04T09:43:57.833Z,50.04
2023-04-04T09:46:43.257Z,49.96
2023-04-04T09:49:32.366Z,48.55
2023-04-04T09:52:19.432Z,51.40
2023-04-04T09:55:05.637Z,51.13
2023-04-04T09:57:51.051Z,51.42
2023-04-04T10:00:40.994Z,50.31
2023-04-04T10:03:27.948Z,52.42
2023-04-04T10:06:13.282Z,52.57
2023-04-04T10:08:59.033Z,51.68
2023-04-04T10:11:44.725Z,52.29
2023-04-04T10:14:36.773Z,52.19
2023-04-04T10:17:23.447Z,52.20
2023-04-04T10:20:09.759Z,51.39
2023-04-04T10:22:55.711Z,51.74
2023-04-04T10:25:41.247Z,51.79
2023-04-04T10:28:28.160Z,53.02
2023-04-04T10:31:23.387Z,52.68
2023-04-04T10:34:19.304Z,54.33
2023-04-04T10:37:20.144Z,53.70
2023-04-04T10:40:10.392Z,53.24
2023-04-04T10:42:56.638Z,52.57
2023-04-04T10:45:43.113Z,52.69
2023-04-04T10:48:29.117Z,52.85
2023-04-04T10:51:15.741Z,51.19
2023-04-04T10:54:01.043Z,52.21
2023-04-04T10:56:46.763Z,53.95
2023-04-04T10:59:32.054Z,52.46
2023-04-04T11:02:17.166Z,51.35
2023-04-04T11:05:17.492Z,52.43
2023-04-04T11:08:08.571Z,50.59
2023-04-04T11:10:55.661Z,49.82
2023-04-04T11:13:59.732Z,52.03
2023-04-04T11:16:46.611Z,53.45
2023-04-04T11:19:31.920Z,53.97
2023-04-04T11:22:17.488Z,52.92
2023-04-04T11:25:24.324Z,50.05
2023-04-04T11:28:15.386Z,49.05
2023-04-04T11:31:18.914Z,48.34
2023-04-04T11:34:08.436Z,47.38
2023-04-04T11:36:53.935Z,48.20
2023-04-04T11:39:47.726Z,45.76
2023-04-04T11:42:37.766Z,45.72
2023-04-04T11:45:25.763Z,44.80
2023-04-04T11:48:12.562Z,44.87
2023-04-04T11:50:57.985Z,45.68
2023-04-04T11:53:43.438Z,48.77
2023-04-04T11:56:28.741Z,48.21
2023-04-04T11:59:19.467Z,45.86
2023-04-04T12:02:05.110Z,47.66
2023-04-04T12:04:51.783Z,45.58
2023-04-04T12:07:37.265Z,47.99
2023-04-04T12:10:22.785Z,44.74
2023-04-04T12:13:09.563Z,48.63
2023-04-04T12:18:41.170Z,49.02
2023-04-04T12:21:26.322Z,48.55
2023-04-04T12:24:12.065Z,42.18
2023-04-04T12:26:57.361Z,44.40
2023-04-04T12:29:43.140Z,43.46
2023-04-04T12:32:29.379Z,44.05
2023-04-04T12:35:15.289Z,43.40
2023-04-04T12:38:05.954Z,44.47
2023-04-04T12:40:51.617Z,44.89
2023-04-04T12:43:41.532Z,43.93
2023-04-04T12:46:26.817Z,43.87
2023-04-04T12:49:12.085Z,43.79
2023-04-04T12:51:57.825Z,44.77
2023-04-04T12:54:43.547Z,44.04
2023-04-04T12:57:29.139Z,43.94
2023-04-04T13:00:15.357Z,45.30
2023-04-04T13:03:00.916Z,42.18
2023-04-04T13:05:47.489Z,45.89
2023-04-04T13:08:33.220Z,46.70
2023-04-04T13:11:19.131Z,45.40
2023-04-04T13:14:04.660Z,41.86
2023-04-04T13:17:04.506Z,44.42
2023-04-04T13:19:50.071Z,46.51
2023-04-04T13:22:36.333Z,42.80
2023-04-04T13:25:21.593Z,45.85
2023-04-04T13:28:06.880Z,44.30
2023-04-04T13:30:52.217Z,44.31
2023-04-04T13:33:38.438Z,43.08
2023-04-04T13:36:23.720Z,41.17
2023-04-04T13:39:09.106Z,43.04
2023-04-04T13:41:54.440Z,42.01
2023-04-04T13:44:39.744Z,43.18
2023-04-04T13:47:25.667Z,43.46
2023-04-04T13:50:11.368Z,44.01
2023-04-04T13:52:56.370Z,47.17
2023-04-04T13:55:56.888Z,45.00
2023-04-04T13:58:47.749Z,43.80
2023-04-04T14:01:33.653Z,42.59
2023-04-04T14:07:24.016Z,43.41
2023-04-04T14:10:09.824Z,42.45
2023-04-04T14:12:55.047Z,42.87
2023-04-04T14:15:40.856Z,43.70
2023-04-04T14:18:26.288Z,43.72
2023-04-04T14:21:11.737Z,42.45
2023-04-04T14:23:56.912Z,42.76
2023-04-04T14:26:42.342Z,45.25
2023-04-04T14:29:27.702Z,44.37
2023-04-04T14:32:12.917Z,43.85
2023-04-04T14:34:58.426Z,43.98
2023-04-04T14:37:43.835Z,44.10
2023-04-04T14:40:29.422Z,45.21
2023-04-04T14:43:14.724Z,45.31
2023-04-04T14:45:59.972Z,46.11
2023-04-04T14:48:45.517Z,41.77
2023-04-04T14:51:30.938Z,47.09
2023-04-04T14:54:16.225Z,47.33
2023-04-04T14:57:02.201Z,46.84
2023-04-04T14:59:47.480Z,45.90
2023-04-04T15:02:33.298Z,46.42
2023-04-04T15:05:19.429Z,45.50
2023-04-04T15:08:04.772Z,47.51
2023-04-04T15:10:50.058Z,45.73
2023-04-04T15:13:35.525Z,48.09
2023-04-04T15:16:20.999Z,43.51
2023-04-04T15:19:06.429Z,43.21
2023-04-04T15:21:51.629Z,45.58
2023-04-04T15:24:37.111Z,43.78
2023-04-04T15:27:22.374Z,45.26
2023-04-04T15:30:08.593Z,46.63
2023-04-04T15:32:55.721Z,47.81
2023-04-04T15:35:42.450Z,50.71
2023-04-04T15:38:27.774Z,46.92
2023-04-04T15:41:13.354Z,43.99
2023-04-04T15:43:58.540Z,48.76
2023-04-04T15:46:43.766Z,44.63
2023-04-04T15:49:28.857Z,43.47
2023-04-04T15:52:14.308Z,47.66
2023-04-04T15:54:59.557Z,45.67
2023-04-04T15:57:45.635Z,47.11
2023-04-04T16:00:31.065Z,48.68
2023-04-04T16:03:16.669Z,44.32
2023-04-04T16:06:01.760Z,47.99
2023-04-04T16:08:47.001Z,50.73
2023-04-04T16:11:32.554Z,47.53
2023-04-04T16:14:17.773Z,47.62
2023-04-04T16:17:03.288Z,48.61
2023-04-04T16:19:48.444Z,45.30
2023-04-04T16:22:33.672Z,45.59
2023-04-04T16:25:20.659Z,46.10
2023-04-04T16:28:06.684Z,44.96
2023-04-04T16:30:52.569Z,43.65
2023-04-04T16:33:37.742Z,46.86
2023-04-04T16:36:23.194Z,45.13
2023-04-04T16:39:08.650Z,47.45
2023-04-04T16:41:54.092Z,45.60
2023-04-04T16:44:39.595Z,49.18
2023-04-04T16:47:26.716Z,48.56
2023-04-04T16:50:12.606Z,48.60
2023-04-04T16:52:58.062Z,46.61
2023-04-04T16:55:43.538Z,46.50
2023-04-04T16:58:29.763Z,49.68
2023-04-04T17:01:15.113Z,48.01
2023-04-04T17:04:00.588Z,45.99
2023-04-04T17:06:45.758Z,49.69
2023-04-04T17:09:30.976Z,48.99
2023-04-04T17:12:16.468Z,49.95
2023-04-04T17:15:02.073Z,50.38
2023-04-04T17:17:47.227Z,51.87
2023-04-04T17:20:34.309Z,50.86
2023-04-04T17:23:19.856Z,51.63
2023-04-04T17:26:05.164Z,51.88
2023-04-04T17:28:50.171Z,51.81
2023-04-04T17:31:35.804Z,53.59
2023-04-04T17:34:21.234Z,52.74
2023-04-04T17:37:06.842Z,52.76
2023-04-04T17:39:52.032Z,52.17
2023-04-04T17:42:37.135Z,51.71
2023-04-04T17:45:22.809Z,51.76
2023-04-04T17:48:08.446Z,51.67
2023-04-04T17:50:53.704Z,51.43
2023-04-04T17:53:39.026Z,50.90
2023-04-04T17:56:25.133Z,50.58
2023-04-04T17:59:10.824Z,50.55
2023-04-04T18:01:56.159Z,51.45
2023-04-04T18:04:42.212Z,51.49
2023-04-04T18:07:27.653Z,51.15
2023-04-04T18:10:12.912Z,52.33
2023-04-04T18:12:58.411Z,51.83
2023-04-04T18:15:43.675Z,51.63
2023-04-04T18:18:29.405Z,52.71
2023-04-04T18:21:15.129Z,51.63
2023-04-04T18:24:00.620Z,52.12
2023-04-04T18:26:46.021Z,52.63
2023-04-04T18:29:31.146Z,52.36
2023-04-04T18:32:17.856Z,53.84
2023-04-04T18:35:03.389Z,54.31
2023-04-04T18:37:49.615Z,54.84
2023-04-04T18:40:34.802Z,54.51
2023-04-04T18:43:20.206Z,54.31
2023-04-04T18:46:05.903Z,54.28
2023-04-04T18:48:51.704Z,53.28
2023-04-04T18:51:36.733Z,52.55
2023-04-04T18:54:21.991Z,53.29
2023-04-04T18:57:07.461Z,53.59
2023-04-04T18:59:52.942Z,54.42
2023-04-04T19:02:38.503Z,54.15
2023-04-04T19:05:25.342Z,55.33
2023-04-04T19:08:12.613Z,55.93
2023-04-04T19:10:57.843Z,56.21
2023-04-04T19:13:43.373Z,57.32
2023-04-04T19:16:29.861Z,57.25
2023-04-04T19:19:15.248Z,57.81
2023-04-04T19:22:03.230Z,56.59
2023-04-04T19:24:48.398Z,56.56
2023-04-04T19:27:33.578Z,57.05
2023-04-04T19:30:43.816Z,57.18
2023-04-04T19:33:32.893Z,56.59
2023-04-04T19:36:19.556Z,56.55
2023-04-04T19:39:05.558Z,56.68
2023-04-04T19:41:50.567Z,57.22
2023-04-04T19:44:39.677Z,56.73
2023-04-04T19:47:25.053Z,57.77
2023-04-04T19:50:36.527Z,57.67
2023-04-04T19:53:22.663Z,57.81
2023-04-04T19:56:09.974Z,57.55
2023-04-04T19:59:00.671Z,57.91
2023-04-04T20:01:59.754Z,58.01
2023-04-04T20:04:46.902Z,57.63
2023-04-04T20:07:32.309Z,58.14
2023-04-04T20:10:38.885Z,58.35
2023-04-04T20:13:24.257Z,58.63
2023-04-04T20:16:11.739Z,58.44
2023-04-04T20:19:01.826Z,59.71
2023-04-04T20:21:48.122Z,59.50
2023-04-04T20:24:34.043Z,59.24
2023-04-04T20:27:23.855Z,59.32
2023-04-04T20:30:11.363Z,58.94
2023-04-04T20:32:56.576Z,58.93
2023-04-04T20:35:41.877Z,59.27
2023-04-04T20:38:27.230Z,58.80
2023-04-04T20:41:16.695Z,58.02
2023-04-04T20:44:02.076Z,58.19
2023-04-04T20:46:48.214Z,58.36
2023-04-04T20:49:33.529Z,58.64
2023-04-04T20:52:25.718Z,58.85
2023-04-04T20:55:11.097Z,59.32
2023-04-04T20:58:22.575Z,59.57
2023-04-04T21:01:12.948Z,59.83
2023-04-04T21:03:59.377Z,60.24
2023-04-04T21:06:44.926Z,60.71
2023-04-04T21:09:30.517Z,60.22
2023-04-04T21:12:15.882Z,59.75
2023-04-04T21:15:01.216Z,60.09
2023-04-04T21:17:46.427Z,62.51
2023-04-04T21:20:46.828Z,62.15
2023-04-04T21:23:33.451Z,62.26
2023-04-04T21:26:35.476Z,61.97
2023-04-04T21:29:22.932Z,61.73
2023-04-04T21:32:09.223Z,61.06
2023-04-04T21:34:54.338Z,60.22
2023-04-04T21:37:39.887Z,60.70
2023-04-04T21:40:25.649Z,60.36
2023-04-04T21:43:11.175Z,60.89
2023-04-04T21:45:56.510Z,60.65
2023-04-04T21:48:41.606Z,60.41
2023-04-04T21:51:27.503Z,60.36
2023-04-04T21:54:13.054Z,60.54
2023-04-04T21:56:58.531Z,61.33
2023-04-04T21:59:43.738Z,61.16
2023-04-04T22:02:29.082Z,60.89
2023-04-04T22:05:14.816Z,61.10
2023-04-04T22:07:59.966Z,60.89
2023-04-04T22:10:45.279Z,60.48
2023-04-04T22:13:30.940Z,60.70
2023-04-04T22:16:18.543Z,60.68
2023-04-04T22:19:03.813Z,59.85
2023-04-04T22:21:48.965Z,59.98
2023-04-04T22:24:34.295Z,60.24
2023-04-04T22:27:19.607Z,60.20
2023-04-04T22:30:06.279Z,61.50
2023-04-04T22:32:51.805Z,61.14
2023-04-04T22:35:37.008Z,61.36
2023-04-04T22:38:21.999Z,60.73
2023-04-04T22:41:07.590Z,61.34
2023-04-04T22:43:53.383Z,60.64
2023-04-04T22:46:38.767Z,62.38
2023-04-04T22:49:24.220Z,62.55
2023-04-04T22:52:09.570Z,62.05
2023-04-04T22:54:54.796Z,62.34
2023-04-04T22:57:40.046Z,62.53
2023-04-04T23:00:25.594Z,62.70
2023-04-04T23:03:10.723Z,62.46
2023-04-04T23:05:56.002Z,62.30
2023-04-04T23:08:41.127Z,62.70
2023-04-04T23:11:26.771Z,63.69
2023-04-04T23:14:12.484Z,64.31
2023-04-04T23:16:57.945Z,63.79
2023-04-04T23:19:43.164Z,63.57
2023-04-04T23:22:29.244Z,62.92
2023-04-04T23:25:14.338Z,62.80
2023-04-04T23:28:00.160Z,62.87
2023-04-04T23:30:45.413Z,63.34
2023-04-04T23:33:30.776Z,63.13
2023-04-04T23:36:16.050Z,63.65
2023-04-04T23:39:01.354Z,63.31
2023-04-04T23:41:46.890Z,63.19
2023-04-04T23:44:32.156Z,63.25
2023-04-04T23:47:17.533Z,63.90
2023-04-04T23:50:03.159Z,63.83
2023-04-04T23:52:48.509Z,63.81
2023-04-04T23:55:33.815Z,64.02
2023-04-04T23:58:19.539Z,63.75
